sensor_id;sensor_type;location;lat;lon;timestamp;P1;durP1;ratioP1;P2;durP2;ratioP2
17564;SDS011;62994;52.126;5.596;2023-05-07T00:00:27;5.22;;;3.67;;
17564;SDS011;62994;52.126;5.596;2023-05-07T00:02:57;4.00;;;3.70;;
17564;SDS011;62994;52.126;5.596;2023-05-07T00:05:24;3.97;;;3.78;;
17564;SDS011;62994;52.126;5.596;2023-05-07T00:07:53;3.80;;;3.60;;
17564;SDS011;62994;52.126;5.596;2023-05-07T00:10:20;4.10;;;3.90;;
17564;SDS011;62994;52.126;5.596;2023-05-07T00:12:47;4.22;;;4.00;;
17564;SDS011;62994;52.126;5.596;2023-05-07T00:15:14;4.32;;;3.92;;
17564;SDS011;62994;52.126;5.596;2023-05-07T00:17:42;4.45;;;4.18;;
17564;SDS011;62994;52.126;5.596;2023-05-07T00:20:11;4.32;;;3.45;;
17564;SDS011;62994;52.126;5.596;2023-05-07T00:22:38;4.25;;;3.97;;
17564;SDS011;62994;52.126;5.596;2023-05-07T00:25:05;4.32;;;4.03;;
17564;SDS011;62994;52.126;5.596;2023-05-07T00:27:41;4.07;;;3.78;;
17564;SDS011;62994;52.126;5.596;2023-05-07T00:30:09;4.55;;;4.25;;
17564;SDS011;62994;52.126;5.596;2023-05-07T00:32:36;4.32;;;4.10;;
17564;SDS011;62994;52.126;5.596;2023-05-07T00:35:04;3.80;;;3.60;;
17564;SDS011;62994;52.126;5.596;2023-05-07T00:37:33;3.67;;;3.47;;
17564;SDS011;62994;52.126;5.596;2023-05-07T00:40:00;4.90;;;4.60;;
17564;SDS011;62994;52.126;5.596;2023-05-07T00:42:29;4.82;;;4.50;;
17564;SDS011;62994;52.126;5.596;2023-05-07T00:44:57;4.20;;;4.00;;
17564;SDS011;62994;52.126;5.596;2023-05-07T00:47:24;4.32;;;3.70;;
17564;SDS011;62994;52.126;5.596;2023-05-07T00:49:51;4.53;;;4.22;;
17564;SDS011;62994;52.126;5.596;2023-05-07T00:52:19;4.93;;;4.30;;
17564;SDS011;62994;52.126;5.596;2023-05-07T00:54:49;3.67;;;3.47;;
17564;SDS011;62994;52.126;5.596;2023-05-07T00:57:16;4.70;;;4.40;;
17564;SDS011;62994;52.126;5.596;2023-05-07T00:59:45;4.43;;;4.13;;
17564;SDS011;62994;52.126;5.596;2023-05-07T01:02:14;5.00;;;4.70;;
17564;SDS011;62994;52.126;5.596;2023-05-07T01:04:45;4.53;;;4.22;;
17564;SDS011;62994;52.126;5.596;2023-05-07T01:07:18;4.35;;;4.07;;
17564;SDS011;62994;52.126;5.596;2023-05-07T01:09:47;4.50;;;4.20;;
17564;SDS011;62994;52.126;5.596;2023-05-07T01:12:16;4.20;;;4.00;;
17564;SDS011;62994;52.126;5.596;2023-05-07T01:14:43;4.43;;;4.15;;
17564;SDS011;62994;52.126;5.596;2023-05-07T01:17:10;4.68;;;4.40;;
17564;SDS011;62994;52.126;5.596;2023-05-07T01:19:43;4.80;;;4.50;;
17564;SDS011;62994;52.126;5.596;2023-05-07T01:22:10;4.85;;;4.65;;
17564;SDS011;62994;52.126;5.596;2023-05-07T01:24:39;5.68;;;5.38;;
17564;SDS011;62994;52.126;5.596;2023-05-07T01:27:06;5.03;;;4.63;;
17564;SDS011;62994;52.126;5.596;2023-05-07T01:29:33;4.97;;;4.38;;
17564;SDS011;62994;52.126;5.596;2023-05-07T01:32:05;4.70;;;4.50;;
17564;SDS011;62994;52.126;5.596;2023-05-07T01:34:33;5.20;;;4.90;;
17564;SDS011;62994;52.126;5.596;2023-05-07T01:37:02;5.75;;;5.45;;
17564;SDS011;62994;52.126;5.596;2023-05-07T01:39:31;5.10;;;4.80;;
17564;SDS011;62994;52.126;5.596;2023-05-07T01:42:00;5.55;;;5.13;;
17564;SDS011;62994;52.126;5.596;2023-05-07T01:44:30;5.00;;;4.80;;
17564;SDS011;62994;52.126;5.596;2023-05-07T01:46:57;5.68;;;5.38;;
17564;SDS011;62994;52.126;5.596;2023-05-07T01:49:25;5.85;;;5.55;;
17564;SDS011;62994;52.126;5.596;2023-05-07T01:51:53;5.63;;;5.22;;
17564;SDS011;62994;52.126;5.596;2023-05-07T01:54:24;6.50;;;5.45;;
17564;SDS011;62994;52.126;5.596;2023-05-07T01:56:55;6.13;;;5.68;;
17564;SDS011;62994;52.126;5.596;2023-05-07T01:59:24;5.75;;;5.22;;
17564;SDS011;62994;52.126;5.596;2023-05-07T02:01:53;6.07;;;5.63;;
17564;SDS011;62994;52.126;5.596;2023-05-07T02:04:28;6.00;;;5.60;;
17564;SDS011;62994;52.126;5.596;2023-05-07T02:06:55;6.20;;;5.82;;
17564;SDS011;62994;52.126;5.596;2023-05-07T02:09:22;5.82;;;5.55;;
17564;SDS011;62994;52.126;5.596;2023-05-07T02:11:49;6.68;;;6.28;;
17564;SDS011;62994;52.126;5.596;2023-05-07T02:14:16;6.45;;;5.93;;
17564;SDS011;62994;52.126;5.596;2023-05-07T02:16:46;5.72;;;5.35;;
17564;SDS011;62994;52.126;5.596;2023-05-07T02:19:13;5.85;;;5.45;;
17564;SDS011;62994;52.126;5.596;2023-05-07T02:21:42;5.28;;;4.97;;
17564;SDS011;62994;52.126;5.596;2023-05-07T02:24:14;6.05;;;5.65;;
17564;SDS011;62994;52.126;5.596;2023-05-07T02:26:41;5.85;;;5.35;;
17564;SDS011;62994;52.126;5.596;2023-05-07T02:29:09;6.40;;;6.10;;
17564;SDS011;62994;52.126;5.596;2023-05-07T02:31:38;5.95;;;5.65;;
17564;SDS011;62994;52.126;5.596;2023-05-07T02:34:07;5.70;;;5.43;;
17564;SDS011;62994;52.126;5.596;2023-05-07T02:36:34;5.35;;;5.05;;
17564;SDS011;62994;52.126;5.596;2023-05-07T02:39:01;6.20;;;5.90;;
17564;SDS011;62994;52.126;5.596;2023-05-07T02:41:29;6.25;;;5.78;;
17564;SDS011;62994;52.126;5.596;2023-05-07T02:43:56;6.03;;;5.55;;
17564;SDS011;62994;52.126;5.596;2023-05-07T02:46:23;6.30;;;6.00;;
17564;SDS011;62994;52.126;5.596;2023-05-07T02:48:50;7.30;;;6.80;;
17564;SDS011;62994;52.126;5.596;2023-05-07T02:51:19;6.57;;;6.18;;
17564;SDS011;62994;52.126;5.596;2023-05-07T02:53:47;6.20;;;5.70;;
17564;SDS011;62994;52.126;5.596;2023-05-07T02:56:15;7.43;;;6.80;;
17564;SDS011;62994;52.126;5.596;2023-05-07T02:58:42;6.63;;;6.13;;
17564;SDS011;62994;52.126;5.596;2023-05-07T03:01:14;6.53;;;6.18;;
17564;SDS011;62994;52.126;5.596;2023-05-07T03:03:43;6.80;;;6.40;;
17564;SDS011;62994;52.126;5.596;2023-05-07T03:06:12;7.32;;;6.68;;
17564;SDS011;62994;52.126;5.596;2023-05-07T03:08:41;6.93;;;6.47;;
17564;SDS011;62994;52.126;5.596;2023-05-07T03:11:08;7.28;;;6.88;;
17564;SDS011;62994;52.126;5.596;2023-05-07T03:13:43;7.03;;;6.53;;
17564;SDS011;62994;52.126;5.596;2023-05-07T03:16:10;7.55;;;7.10;;
17564;SDS011;62994;52.126;5.596;2023-05-07T03:18:39;8.18;;;7.47;;
17564;SDS011;62994;52.126;5.596;2023-05-07T03:21:14;7.90;;;7.25;;
17564;SDS011;62994;52.126;5.596;2023-05-07T03:23:43;7.88;;;7.38;;
17564;SDS011;62994;52.126;5.596;2023-05-07T03:26:10;9.13;;;8.52;;
17564;SDS011;62994;52.126;5.596;2023-05-07T03:28:37;9.93;;;9.05;;
17564;SDS011;62994;52.126;5.596;2023-05-07T03:31:06;8.95;;;8.38;;
17564;SDS011;62994;52.126;5.596;2023-05-07T03:33:37;8.35;;;7.93;;
17564;SDS011;62994;52.126;5.596;2023-05-07T03:36:16;7.88;;;7.38;;
17564;SDS011;62994;52.126;5.596;2023-05-07T03:38:45;7.82;;;7.28;;
17564;SDS011;62994;52.126;5.596;2023-05-07T03:41:16;7.30;;;6.78;;
17564;SDS011;62994;52.126;5.596;2023-05-07T03:43:43;7.03;;;6.57;;
17564;SDS011;62994;52.126;5.596;2023-05-07T03:46:10;7.78;;;7.28;;
17564;SDS011;62994;52.126;5.596;2023-05-07T03:48:42;8.20;;;7.60;;
17564;SDS011;62994;52.126;5.596;2023-05-07T03:51:09;8.48;;;7.78;;
17564;SDS011;62994;52.126;5.596;2023-05-07T03:53:41;7.13;;;6.72;;
17564;SDS011;62994;52.126;5.596;2023-05-07T03:56:10;7.00;;;6.60;;
17564;SDS011;62994;52.126;5.596;2023-05-07T03:58:37;8.35;;;7.75;;
17564;SDS011;62994;52.126;5.596;2023-05-07T04:01:04;8.40;;;7.85;;
17564;SDS011;62994;52.126;5.596;2023-05-07T04:03:37;12.20;;;8.57;;
17564;SDS011;62994;52.126;5.596;2023-05-07T04:06:04;7.97;;;7.38;;
17564;SDS011;62994;52.126;5.596;2023-05-07T04:08:32;8.52;;;7.82;;
17564;SDS011;62994;52.126;5.596;2023-05-07T04:11:04;8.25;;;7.55;;
17564;SDS011;62994;52.126;5.596;2023-05-07T04:13:33;7.55;;;7.15;;
17564;SDS011;62994;52.126;5.596;2023-05-07T04:16:01;8.50;;;7.90;;
17564;SDS011;62994;52.126;5.596;2023-05-07T04:18:28;7.47;;;6.70;;
17564;SDS011;62994;52.126;5.596;2023-05-07T04:21:00;7.78;;;7.22;;
17564;SDS011;62994;52.126;5.596;2023-05-07T04:23:28;9.07;;;8.18;;
17564;SDS011;62994;52.126;5.596;2023-05-07T04:25:56;8.75;;;8.18;;
17564;SDS011;62994;52.126;5.596;2023-05-07T04:28:24;8.30;;;7.75;;
17564;SDS011;62994;52.126;5.596;2023-05-07T04:30:52;7.95;;;7.40;;
17564;SDS011;62994;52.126;5.596;2023-05-07T04:33:20;8.15;;;7.45;;
17564;SDS011;62994;52.126;5.596;2023-05-07T04:35:47;10.25;;;8.77;;
17564;SDS011;62994;52.126;5.596;2023-05-07T04:38:14;10.98;;;8.85;;
17564;SDS011;62994;52.126;5.596;2023-05-07T04:40:41;8.52;;;7.93;;
17564;SDS011;62994;52.126;5.596;2023-05-07T04:43:13;8.38;;;7.68;;
17564;SDS011;62994;52.126;5.596;2023-05-07T04:45:41;9.50;;;8.70;;
17564;SDS011;62994;52.126;5.596;2023-05-07T04:48:10;9.02;;;8.38;;
17564;SDS011;62994;52.126;5.596;2023-05-07T04:50:37;8.48;;;7.90;;
17564;SDS011;62994;52.126;5.596;2023-05-07T04:53:04;10.48;;;9.48;;
17564;SDS011;62994;52.126;5.596;2023-05-07T04:55:31;10.70;;;9.80;;
17564;SDS011;62994;52.126;5.596;2023-05-07T04:58:01;10.80;;;9.95;;
17564;SDS011;62994;52.126;5.596;2023-05-07T05:00:30;12.17;;;11.27;;
17564;SDS011;62994;52.126;5.596;2023-05-07T05:02:57;11.23;;;10.40;;
17564;SDS011;62994;52.126;5.596;2023-05-07T05:05:26;10.98;;;9.93;;
17564;SDS011;62994;52.126;5.596;2023-05-07T05:07:53;13.35;;;10.65;;
17564;SDS011;62994;52.126;5.596;2023-05-07T05:10:23;11.60;;;10.75;;
17564;SDS011;62994;52.126;5.596;2023-05-07T05:12:57;11.77;;;11.07;;
17564;SDS011;62994;52.126;5.596;2023-05-07T05:15:24;12.48;;;11.52;;
17564;SDS011;62994;52.126;5.596;2023-05-07T05:17:52;13.00;;;12.00;;
17564;SDS011;62994;52.126;5.596;2023-05-07T05:20:19;12.20;;;11.48;;
17564;SDS011;62994;52.126;5.596;2023-05-07T05:22:50;14.50;;;12.13;;
17564;SDS011;62994;52.126;5.596;2023-05-07T05:25:17;13.32;;;12.25;;
17564;SDS011;62994;52.126;5.596;2023-05-07T05:27:50;13.15;;;11.93;;
17564;SDS011;62994;52.126;5.596;2023-05-07T05:30:17;13.70;;;12.70;;
17564;SDS011;62994;52.126;5.596;2023-05-07T05:32:47;12.73;;;11.80;;
17564;SDS011;62994;52.126;5.596;2023-05-07T05:35:19;13.00;;;12.10;;
17564;SDS011;62994;52.126;5.596;2023-05-07T05:37:52;12.82;;;11.70;;
17564;SDS011;62994;52.126;5.596;2023-05-07T05:40:22;12.75;;;11.65;;
17564;SDS011;62994;52.126;5.596;2023-05-07T05:42:49;12.70;;;11.90;;
17564;SDS011;62994;52.126;5.596;2023-05-07T05:45:16;12.82;;;12.00;;
17564;SDS011;62994;52.126;5.596;2023-05-07T05:47:43;13.95;;;12.88;;
17564;SDS011;62994;52.126;5.596;2023-05-07T05:50:15;14.60;;;13.55;;
17564;SDS011;62994;52.126;5.596;2023-05-07T05:52:45;14.07;;;12.88;;
17564;SDS011;62994;52.126;5.596;2023-05-07T05:55:14;13.52;;;12.43;;
17564;SDS011;62994;52.126;5.596;2023-05-07T05:57:41;14.18;;;13.05;;
17564;SDS011;62994;52.126;5.596;2023-05-07T06:00:09;14.25;;;12.95;;
17564;SDS011;62994;52.126;5.596;2023-05-07T06:02:39;14.15;;;13.07;;
17564;SDS011;62994;52.126;5.596;2023-05-07T06:05:09;15.00;;;13.60;;
17564;SDS011;62994;52.126;5.596;2023-05-07T06:07:36;13.48;;;12.60;;
17564;SDS011;62994;52.126;5.596;2023-05-07T06:10:04;13.30;;;12.30;;
17564;SDS011;62994;52.126;5.596;2023-05-07T06:12:34;13.10;;;12.00;;
17564;SDS011;62994;52.126;5.596;2023-05-07T06:15:03;12.65;;;11.75;;
17564;SDS011;62994;52.126;5.596;2023-05-07T06:17:30;13.55;;;12.55;;
17564;SDS011;62994;52.126;5.596;2023-05-07T06:19:58;13.68;;;12.73;;
17564;SDS011;62994;52.126;5.596;2023-05-07T06:22:25;13.07;;;12.07;;
17564;SDS011;62994;52.126;5.596;2023-05-07T06:24:54;13.90;;;12.77;;
17564;SDS011;62994;52.126;5.596;2023-05-07T06:27:28;13.70;;;12.60;;
17564;SDS011;62994;52.126;5.596;2023-05-07T06:29:59;13.98;;;13.00;;
17564;SDS011;62994;52.126;5.596;2023-05-07T06:32:29;14.63;;;13.25;;
17564;SDS011;62994;52.126;5.596;2023-05-07T06:34:57;14.40;;;13.10;;
17564;SDS011;62994;52.126;5.596;2023-05-07T06:37:25;14.15;;;13.23;;
17564;SDS011;62994;52.126;5.596;2023-05-07T06:39:52;13.52;;;12.55;;
17564;SDS011;62994;52.126;5.596;2023-05-07T06:42:21;14.50;;;13.20;;
17564;SDS011;62994;52.126;5.596;2023-05-07T06:44:50;13.48;;;12.57;;
17564;SDS011;62994;52.126;5.596;2023-05-07T06:47:30;13.60;;;12.70;;
17564;SDS011;62994;52.126;5.596;2023-05-07T06:49:57;12.88;;;11.98;;
17564;SDS011;62994;52.126;5.596;2023-05-07T06:52:26;14.75;;;13.35;;
17564;SDS011;62994;52.126;5.596;2023-05-07T06:54:56;12.48;;;11.73;;
17564;SDS011;62994;52.126;5.596;2023-05-07T06:57:28;13.02;;;12.15;;
17564;SDS011;62994;52.126;5.596;2023-05-07T06:59:59;13.45;;;12.55;;
17564;SDS011;62994;52.126;5.596;2023-05-07T07:02:26;14.23;;;13.33;;
17564;SDS011;62994;52.126;5.596;2023-05-07T07:04:54;12.18;;;11.48;;
17564;SDS011;62994;52.126;5.596;2023-05-07T07:07:22;13.40;;;12.43;;
17564;SDS011;62994;52.126;5.596;2023-05-07T07:09:58;13.75;;;12.82;;
17564;SDS011;62994;52.126;5.596;2023-05-07T07:12:25;13.85;;;12.68;;
17564;SDS011;62994;52.126;5.596;2023-05-07T07:14:54;13.73;;;12.65;;
17564;SDS011;62994;52.126;5.596;2023-05-07T07:17:21;13.85;;;12.88;;
17564;SDS011;62994;52.126;5.596;2023-05-07T07:19:48;13.25;;;12.23;;
17564;SDS011;62994;52.126;5.596;2023-05-07T07:22:20;13.05;;;12.15;;
17564;SDS011;62994;52.126;5.596;2023-05-07T07:24:51;13.55;;;12.55;;
17564;SDS011;62994;52.126;5.596;2023-05-07T07:27:18;13.45;;;12.52;;
17564;SDS011;62994;52.126;5.596;2023-05-07T07:29:47;14.80;;;13.80;;
17564;SDS011;62994;52.126;5.596;2023-05-07T07:32:14;14.00;;;12.80;;
17564;SDS011;62994;52.126;5.596;2023-05-07T07:34:46;14.25;;;13.20;;
17564;SDS011;62994;52.126;5.596;2023-05-07T07:37:13;14.32;;;13.43;;
17564;SDS011;62994;52.126;5.596;2023-05-07T07:39:52;13.30;;;12.50;;
17564;SDS011;62994;52.126;5.596;2023-05-07T07:42:19;14.07;;;13.18;;
17564;SDS011;62994;52.126;5.596;2023-05-07T07:44:46;15.20;;;13.93;;
17564;SDS011;62994;52.126;5.596;2023-05-07T07:47:14;12.95;;;12.00;;
17564;SDS011;62994;52.126;5.596;2023-05-07T07:49:43;14.43;;;13.38;;
17564;SDS011;62994;52.126;5.596;2023-05-07T07:52:20;14.93;;;13.68;;
17564;SDS011;62994;52.126;5.596;2023-05-07T07:54:47;15.57;;;14.38;;
17564;SDS011;62994;52.126;5.596;2023-05-07T07:57:22;14.50;;;13.50;;
17564;SDS011;62994;52.126;5.596;2023-05-07T07:59:49;16.02;;;14.80;;
17564;SDS011;62994;52.126;5.596;2023-05-07T08:02:19;14.98;;;13.77;;
17564;SDS011;62994;52.126;5.596;2023-05-07T08:04:52;15.35;;;14.25;;
17564;SDS011;62994;52.126;5.596;2023-05-07T08:07:24;16.17;;;14.48;;
17564;SDS011;62994;52.126;5.596;2023-05-07T08:09:51;15.15;;;14.05;;
17564;SDS011;62994;52.126;5.596;2023-05-07T08:12:26;16.10;;;14.88;;
17564;SDS011;62994;52.126;5.596;2023-05-07T08:14:53;14.95;;;13.95;;
17564;SDS011;62994;52.126;5.596;2023-05-07T08:17:20;15.23;;;14.13;;
17564;SDS011;62994;52.126;5.596;2023-05-07T08:19:47;14.75;;;13.70;;
17564;SDS011;62994;52.126;5.596;2023-05-07T08:22:14;15.40;;;14.30;;
17564;SDS011;62994;52.126;5.596;2023-05-07T08:24:45;14.77;;;13.77;;
17564;SDS011;62994;52.126;5.596;2023-05-07T08:27:16;15.02;;;13.90;;
17564;SDS011;62994;52.126;5.596;2023-05-07T08:29:44;15.07;;;13.98;;
17564;SDS011;62994;52.126;5.596;2023-05-07T08:32:18;14.18;;;13.15;;
17564;SDS011;62994;52.126;5.596;2023-05-07T08:34:46;16.92;;;15.43;;
17564;SDS011;62994;52.126;5.596;2023-05-07T08:37:18;14.45;;;13.45;;
17564;SDS011;62994;52.126;5.596;2023-05-07T08:39:45;15.05;;;13.95;;
17564;SDS011;62994;52.126;5.596;2023-05-07T08:42:12;15.10;;;14.10;;
17564;SDS011;62994;52.126;5.596;2023-05-07T08:44:49;15.82;;;14.45;;
17564;SDS011;62994;52.126;5.596;2023-05-07T08:47:28;15.25;;;14.15;;
17564;SDS011;62994;52.126;5.596;2023-05-07T08:50:12;16.77;;;15.38;;
17564;SDS011;62994;52.126;5.596;2023-05-07T08:52:40;16.95;;;15.27;;
17564;SDS011;62994;52.126;5.596;2023-05-07T08:55:15;16.95;;;15.30;;
17564;SDS011;62994;52.126;5.596;2023-05-07T08:57:45;18.38;;;16.50;;
17564;SDS011;62994;52.126;5.596;2023-05-07T09:00:24;16.85;;;15.52;;
17564;SDS011;62994;52.126;5.596;2023-05-07T09:02:57;17.05;;;15.70;;
17564;SDS011;62994;52.126;5.596;2023-05-07T09:05:26;16.08;;;14.77;;
17564;SDS011;62994;52.126;5.596;2023-05-07T09:08:00;17.08;;;15.65;;
17564;SDS011;62994;52.126;5.596;2023-05-07T09:10:29;17.70;;;15.55;;
17564;SDS011;62994;52.126;5.596;2023-05-07T09:12:58;17.90;;;16.23;;
17564;SDS011;62994;52.126;5.596;2023-05-07T09:15:35;18.55;;;16.75;;
17564;SDS011;62994;52.126;5.596;2023-05-07T09:18:04;17.48;;;15.98;;
17564;SDS011;62994;52.126;5.596;2023-05-07T09:20:36;18.75;;;16.98;;
17564;SDS011;62994;52.126;5.596;2023-05-07T09:23:05;19.73;;;17.23;;
17564;SDS011;62994;52.126;5.596;2023-05-07T09:25:38;18.42;;;16.40;;
17564;SDS011;62994;52.126;5.596;2023-05-07T09:28:20;18.55;;;16.55;;
17564;SDS011;62994;52.126;5.596;2023-05-07T09:30:48;16.73;;;15.32;;
17564;SDS011;62994;52.126;5.596;2023-05-07T09:33:16;16.83;;;15.13;;
17564;SDS011;62994;52.126;5.596;2023-05-07T09:35:44;17.73;;;16.02;;
17564;SDS011;62994;52.126;5.596;2023-05-07T09:38:14;16.38;;;14.85;;
17564;SDS011;62994;52.126;5.596;2023-05-07T09:40:52;17.42;;;15.75;;
17564;SDS011;62994;52.126;5.596;2023-05-07T09:43:31;17.58;;;16.23;;
17564;SDS011;62994;52.126;5.596;2023-05-07T09:46:06;18.55;;;16.63;;
17564;SDS011;62994;52.126;5.596;2023-05-07T09:48:35;17.27;;;15.75;;
17564;SDS011;62994;52.126;5.596;2023-05-07T09:51:06;19.85;;;14.85;;
17564;SDS011;62994;52.126;5.596;2023-05-07T09:53:41;15.55;;;14.27;;
17564;SDS011;62994;52.126;5.596;2023-05-07T09:56:12;15.60;;;14.30;;
17564;SDS011;62994;52.126;5.596;2023-05-07T09:58:40;14.98;;;13.93;;
17564;SDS011;62994;52.126;5.596;2023-05-07T10:01:13;15.52;;;14.05;;
17564;SDS011;62994;52.126;5.596;2023-05-07T10:03:44;15.13;;;14.02;;
17564;SDS011;62994;52.126;5.596;2023-05-07T10:06:16;15.00;;;13.82;;
17564;SDS011;62994;52.126;5.596;2023-05-07T10:08:43;16.83;;;15.07;;
17564;SDS011;62994;52.126;5.596;2023-05-07T10:11:17;14.45;;;13.20;;
17564;SDS011;62994;52.126;5.596;2023-05-07T10:13:48;14.95;;;13.68;;
17564;SDS011;62994;52.126;5.596;2023-05-07T10:16:16;14.82;;;13.43;;
17564;SDS011;62994;52.126;5.596;2023-05-07T10:18:44;15.57;;;14.18;;
17564;SDS011;62994;52.126;5.596;2023-05-07T10:21:16;14.45;;;13.35;;
17564;SDS011;62994;52.126;5.596;2023-05-07T10:23:45;15.90;;;14.63;;
17564;SDS011;62994;52.126;5.596;2023-05-07T10:26:15;14.20;;;12.95;;
17564;SDS011;62994;52.126;5.596;2023-05-07T10:28:54;13.73;;;12.63;;
17564;SDS011;62994;52.126;5.596;2023-05-07T10:31:32;13.77;;;12.80;;
17564;SDS011;62994;52.126;5.596;2023-05-07T10:34:13;14.35;;;13.13;;
17564;SDS011;62994;52.126;5.596;2023-05-07T10:36:47;14.05;;;12.82;;
17564;SDS011;62994;52.126;5.596;2023-05-07T10:39:15;13.48;;;12.48;;
17564;SDS011;62994;52.126;5.596;2023-05-07T10:41:42;13.90;;;12.88;;
17564;SDS011;62994;52.126;5.596;2023-05-07T10:44:09;15.82;;;14.45;;
17564;SDS011;62994;52.126;5.596;2023-05-07T10:46:39;16.42;;;15.23;;
17564;SDS011;62994;52.126;5.596;2023-05-07T10:49:11;15.68;;;14.48;;
17564;SDS011;62994;52.126;5.596;2023-05-07T10:51:46;15.32;;;14.02;;
17564;SDS011;62994;52.126;5.596;2023-05-07T10:55:18;15.25;;;14.05;;
17564;SDS011;62994;52.126;5.596;2023-05-07T10:57:50;15.77;;;14.40;;
17564;SDS011;62994;52.126;5.596;2023-05-07T11:03:11;15.05;;;13.95;;
17564;SDS011;62994;52.126;5.596;2023-05-07T11:05:40;15.73;;;14.27;;
17564;SDS011;62994;52.126;5.596;2023-05-07T11:08:10;14.65;;;13.65;;
17564;SDS011;62994;52.126;5.596;2023-05-07T11:10:47;13.95;;;12.88;;
17564;SDS011;62994;52.126;5.596;2023-05-07T11:13:17;15.20;;;14.00;;
17564;SDS011;62994;52.126;5.596;2023-05-07T11:15:47;13.65;;;12.75;;
17564;SDS011;62994;52.126;5.596;2023-05-07T11:18:19;13.18;;;12.20;;
17564;SDS011;62994;52.126;5.596;2023-05-07T11:20:47;15.68;;;14.07;;
17564;SDS011;62994;52.126;5.596;2023-05-07T11:26:26;12.80;;;11.80;;
17564;SDS011;62994;52.126;5.596;2023-05-07T11:28:56;14.35;;;13.35;;
17564;SDS011;62994;52.126;5.596;2023-05-07T11:31:25;13.90;;;12.95;;
17564;SDS011;62994;52.126;5.596;2023-05-07T11:33:56;13.93;;;12.88;;
17564;SDS011;62994;52.126;5.596;2023-05-07T11:36:24;13.20;;;12.30;;
17564;SDS011;62994;52.126;5.596;2023-05-07T11:38:52;14.90;;;13.88;;
17564;SDS011;62994;52.126;5.596;2023-05-07T11:41:33;14.13;;;13.07;;
17564;SDS011;62994;52.126;5.596;2023-05-07T11:44:01;13.60;;;12.70;;
17564;SDS011;62994;52.126;5.596;2023-05-07T11:46:29;13.98;;;12.55;;
17564;SDS011;62994;52.126;5.596;2023-05-07T11:48:58;13.70;;;12.70;;
17564;SDS011;62994;52.126;5.596;2023-05-07T11:51:32;12.23;;;11.45;;
17564;SDS011;62994;52.126;5.596;2023-05-07T11:53:59;12.32;;;11.52;;
17564;SDS011;62994;52.126;5.596;2023-05-07T11:56:31;14.20;;;13.20;;
17564;SDS011;62994;52.126;5.596;2023-05-07T11:59:02;13.57;;;12.57;;
17564;SDS011;62994;52.126;5.596;2023-05-07T12:01:29;13.38;;;12.48;;
17564;SDS011;62994;52.126;5.596;2023-05-07T12:04:05;13.82;;;12.63;;
17564;SDS011;62994;52.126;5.596;2023-05-07T12:06:35;14.20;;;13.13;;
17564;SDS011;62994;52.126;5.596;2023-05-07T12:09:09;12.38;;;11.68;;
17564;SDS011;62994;52.126;5.596;2023-05-07T12:11:37;13.05;;;12.05;;
17564;SDS011;62994;52.126;5.596;2023-05-07T12:14:06;10.15;;;9.60;;
17564;SDS011;62994;52.126;5.596;2023-05-07T12:16:33;12.95;;;11.85;;
17564;SDS011;62994;52.126;5.596;2023-05-07T12:19:01;14.68;;;13.32;;
17564;SDS011;62994;52.126;5.596;2023-05-07T12:21:29;15.38;;;13.90;;
17564;SDS011;62994;52.126;5.596;2023-05-07T12:23:56;13.75;;;12.75;;
17564;SDS011;62994;52.126;5.596;2023-05-07T12:26:24;14.10;;;13.10;;
17564;SDS011;62994;52.126;5.596;2023-05-07T12:28:58;13.93;;;13.02;;
17564;SDS011;62994;52.126;5.596;2023-05-07T12:31:31;12.27;;;11.40;;
17564;SDS011;62994;52.126;5.596;2023-05-07T12:34:03;13.15;;;12.25;;
17564;SDS011;62994;52.126;5.596;2023-05-07T12:36:37;13.02;;;11.57;;
17564;SDS011;62994;52.126;5.596;2023-05-07T12:39:05;14.25;;;13.18;;
17564;SDS011;62994;52.126;5.596;2023-05-07T12:41:36;13.07;;;12.18;;
17564;SDS011;62994;52.126;5.596;2023-05-07T12:44:21;13.77;;;12.57;;
17564;SDS011;62994;52.126;5.596;2023-05-07T12:46:49;15.02;;;13.98;;
17564;SDS011;62994;52.126;5.596;2023-05-07T12:49:23;14.07;;;12.98;;
17564;SDS011;62994;52.126;5.596;2023-05-07T12:51:52;14.68;;;13.68;;
17564;SDS011;62994;52.126;5.596;2023-05-07T12:54:29;14.57;;;13.48;;
17564;SDS011;62994;52.126;5.596;2023-05-07T12:57:00;13.85;;;12.95;;
17564;SDS011;62994;52.126;5.596;2023-05-07T12:59:32;15.20;;;13.95;;
17564;SDS011;62994;52.126;5.596;2023-05-07T13:01:59;14.00;;;12.98;;
17564;SDS011;62994;52.126;5.596;2023-05-07T13:04:35;14.60;;;13.40;;
17564;SDS011;62994;52.126;5.596;2023-05-07T13:07:15;13.40;;;12.50;;
17564;SDS011;62994;52.126;5.596;2023-05-07T13:09:50;13.50;;;12.50;;
17564;SDS011;62994;52.126;5.596;2023-05-07T13:12:29;13.43;;;12.35;;
17564;SDS011;62994;52.126;5.596;2023-05-07T13:14:57;14.43;;;12.63;;
17564;SDS011;62994;52.126;5.596;2023-05-07T13:17:30;11.63;;;10.93;;
17564;SDS011;62994;52.126;5.596;2023-05-07T13:20:01;13.52;;;12.57;;
17564;SDS011;62994;52.126;5.596;2023-05-07T13:22:30;12.25;;;11.45;;
17564;SDS011;62994;52.126;5.596;2023-05-07T13:25:12;12.13;;;11.38;;
17564;SDS011;62994;52.126;5.596;2023-05-07T13:27:45;11.57;;;10.43;;
17564;SDS011;62994;52.126;5.596;2023-05-07T13:30:12;10.40;;;9.80;;
17564;SDS011;62994;52.126;5.596;2023-05-07T13:32:40;10.88;;;10.18;;
17564;SDS011;62994;52.126;5.596;2023-05-07T13:35:21;10.95;;;10.23;;
17564;SDS011;62994;52.126;5.596;2023-05-07T13:37:49;11.07;;;10.25;;
17564;SDS011;62994;52.126;5.596;2023-05-07T13:40:17;10.48;;;9.80;;
17564;SDS011;62994;52.126;5.596;2023-05-07T13:42:48;10.50;;;9.90;;
17564;SDS011;62994;52.126;5.596;2023-05-07T13:45:17;10.75;;;9.95;;
17564;SDS011;62994;52.126;5.596;2023-05-07T13:47:46;9.60;;;8.90;;
17564;SDS011;62994;52.126;5.596;2023-05-07T13:50:14;11.13;;;10.40;;
17564;SDS011;62994;52.126;5.596;2023-05-07T13:52:46;11.52;;;10.60;;
17564;SDS011;62994;52.126;5.596;2023-05-07T13:55:17;10.88;;;10.18;;
17564;SDS011;62994;52.126;5.596;2023-05-07T13:57:44;11.15;;;10.45;;
17564;SDS011;62994;52.126;5.596;2023-05-07T14:00:12;11.50;;;10.70;;
17564;SDS011;62994;52.126;5.596;2023-05-07T14:02:43;11.77;;;10.90;;
17564;SDS011;62994;52.126;5.596;2023-05-07T14:05:10;12.38;;;11.48;;
17564;SDS011;62994;52.126;5.596;2023-05-07T14:07:41;11.57;;;10.65;;
17564;SDS011;62994;52.126;5.596;2023-05-07T14:10:14;12.43;;;11.27;;
17564;SDS011;62994;52.126;5.596;2023-05-07T14:12:52;11.13;;;10.25;;
17564;SDS011;62994;52.126;5.596;2023-05-07T14:15:19;12.15;;;11.15;;
17564;SDS011;62994;52.126;5.596;2023-05-07T14:17:52;10.82;;;10.13;;
17564;SDS011;62994;52.126;5.596;2023-05-07T14:20:31;11.02;;;10.23;;
17564;SDS011;62994;52.126;5.596;2023-05-07T14:22:58;10.90;;;10.20;;
17564;SDS011;62994;52.126;5.596;2023-05-07T14:25:29;11.60;;;10.65;;
17564;SDS011;62994;52.126;5.596;2023-05-07T14:28:02;11.07;;;10.05;;
17564;SDS011;62994;52.126;5.596;2023-05-07T14:30:29;11.18;;;10.05;;
17564;SDS011;62994;52.126;5.596;2023-05-07T14:32:56;10.75;;;10.02;;
17564;SDS011;62994;52.126;5.596;2023-05-07T14:35:26;10.40;;;9.80;;
17564;SDS011;62994;52.126;5.596;2023-05-07T14:37:56;11.45;;;10.73;;
17564;SDS011;62994;52.126;5.596;2023-05-07T14:40:31;11.32;;;10.55;;
17564;SDS011;62994;52.126;5.596;2023-05-07T14:42:58;12.45;;;11.32;;
17564;SDS011;62994;52.126;5.596;2023-05-07T14:45:28;11.88;;;10.95;;
17564;SDS011;62994;52.126;5.596;2023-05-07T14:47:57;11.82;;;10.73;;
17564;SDS011;62994;52.126;5.596;2023-05-07T14:50:24;9.98;;;9.30;;
17564;SDS011;62994;52.126;5.596;2023-05-07T14:52:52;10.27;;;9.68;;